Time;durP1;ratioP1;P1;durP2;ratioP2;P2;SDS_P1;SDS_P2;PMS_P1;PMS_P2;Temp;Humidity;BMP_temperature;BMP_pressure;BME280_temperature;BME280_humidity;BME280_pressure;Samples;Min_cycle;Max_cycle;Signal;HPM_P1;HPM_P2
2022/06/01 00:00:10;;;;;;;7.55;6.75;;;;;;;19.81;100.00;99404.72;5090081;28;20650;-62
2022/06/01 00:02:38;;;;;;;7.30;6.57;;;;;;;19.58;100.00;99379.94;5089753;28;20241;-56
2022/06/01 00:05:06;;;;;;;6.05;5.65;;;;;;;19.83;100.00;99410.72;5090269;28;20197;-61
2022/06/01 00:07:33;;;;;;;7.35;6.43;;;;;;;19.86;100.00;99421.06;5090316;28;20201;-62
2022/06/01 00:10:00;;;;;;;7.20;6.50;;;;;;;19.73;100.00;99407.88;5089948;28;20571;-57
2022/06/01 00:12:29;;;;;;;7.00;5.72;;;;;;;19.74;100.00;99409.56;5089897;28;20191;-57
2022/06/01 00:14:56;;;;;;;6.32;5.93;;;;;;;19.68;100.00;99403.84;5089469;28;20229;-57
2022/06/01 00:17:24;;;;;;;9.25;6.00;;;;;;;19.72;100.00;99407.97;5090090;28;20195;-61
2022/06/01 00:19:51;;;;;;;5.82;5.25;;;;;;;19.72;100.00;99405.34;5092402;28;20282;-62
2022/06/01 00:22:18;;;;;;;6.13;5.63;;;;;;;19.76;100.00;99412.06;5094081;28;20758;-58
2022/06/01 00:24:47;;;;;;;5.65;5.15;;;;;;;19.82;100.00;99411.66;5093808;28;20192;-58
2022/06/01 00:27:16;;;;;;;7.38;4.95;;;;;;;19.69;100.00;99384.47;5093582;28;20195;-62
2022/06/01 00:29:45;;;;;;;5.72;4.93;;;;;;;19.87;100.00;99409.53;5093956;28;20195;-62
2022/06/01 00:32:14;;;;;;;9.18;5.50;;;;;;;19.89;100.00;99407.66;5093944;28;20252;-62
2022/06/01 00:34:41;;;;;;;6.50;5.05;;;;;;;19.86;100.00;99399.97;5093402;28;20699;-58
2022/06/01 00:37:09;;;;;;;5.18;4.68;;;;;;;19.88;100.00;99403.31;5093570;28;20191;-58
2022/06/01 00:39:36;;;;;;;5.68;5.10;;;;;;;19.93;100.00;99409.97;5093419;28;20248;-58
2022/06/01 00:42:12;;;;;;;5.88;5.10;;;;;;;19.97;98.98;99413.25;5093187;28;20282;-59
2022/06/01 00:44:40;;;;;;;10.10;5.43;;;;;;;19.99;98.05;99403.44;5092316;28;20207;-58
2022/06/01 00:47:10;;;;;;;5.03;4.70;;;;;;;19.90;96.38;99375.09;5092953;28;20239;-58
2022/06/01 00:49:40;;;;;;;5.57;4.65;;;;;;;20.07;96.14;99389.75;5093246;28;20230;-58
2022/06/01 00:52:07;;;;;;;5.57;4.60;;;;;;;20.04;95.84;99400.50;5093115;28;20690;-58
2022/06/01 00:54:35;;;;;;;5.43;5.00;;;;;;;20.08;94.91;99392.28;5092754;28;20229;-58
2022/06/01 00:57:08;;;;;;;8.15;5.95;;;;;;;20.16;94.73;99405.75;5093313;28;20738;-61
2022/06/01 00:59:39;;;;;;;6.05;4.60;;;;;;;20.11;93.89;99396.47;5093514;28;20636;-61
2022/06/01 01:02:09;;;;;;;6.97;5.40;;;;;;;20.16;93.66;99403.13;5092256;28;20210;-58
2022/06/01 01:04:38;;;;;;;5.30;4.82;;;;;;;20.17;93.21;99404.81;5092900;28;20325;-58
2022/06/01 01:07:09;;;;;;;5.47;5.00;;;;;;;20.19;93.01;99395.00;5092750;28;20613;-62
2022/06/01 01:09:36;;;;;;;5.13;4.68;;;;;;;20.24;92.12;99386.75;5093658;28;20646;-61
2022/06/01 01:12:07;;;;;;;5.57;4.65;;;;;;;20.16;91.99;99392.56;5093113;28;20213;-62
2022/06/01 01:14:37;;;;;;;7.20;5.00;;;;;;;20.12;92.62;99392.88;5093230;28;20233;-58
2022/06/01 01:17:06;;;;;;;5.68;4.47;;;;;;;20.03;91.63;99361.91;5092489;28;20199;-62
2022/06/01 01:19:37;;;;;;;8.65;4.70;;;;;;;20.16;92.08;99389.94;5092935;28;20275;-58
2022/06/01 01:22:20;;;;;;;6.20;5.13;;;;;;;20.07;92.58;99393.22;5092609;28;20206;-57
2022/06/01 01:25:16;;;;;;;5.00;4.70;;;;;;;20.04;92.75;99380.25;5092739;28;20198;-60
2022/06/01 01:27:43;;;;;;;4.60;4.30;;;;;;;19.89;93.38;99376.88;5093137;28;20228;-60
2022/06/01 01:30:34;;;;;;;5.80;4.95;;;;;;;20.07;93.19;99393.22;5091979;28;20628;-57
2022/06/01 01:33:03;;;;;;;8.23;5.40;;;;;;;20.05;93.32;99389.84;5092768;28;20291;-62
2022/06/01 01:35:30;;;;;;;4.30;4.00;;;;;;;20.03;93.49;99394.38;5091507;28;20790;-60
2022/06/01 01:38:00;;;;;;;5.18;4.53;;;;;;;20.06;93.34;99391.53;5092285;28;20203;-57
2022/06/01 01:40:29;;;;;;;6.03;4.20;;;;;;;20.03;93.77;99383.00;5092110;28;20199;-57
2022/06/01 01:42:58;;;;;;;7.45;4.40;;;;;;;19.97;94.16;99389.53;5092016;28;20207;-57
2022/06/01 01:45:27;;;;;;;5.07;4.03;;;;;;;19.85;94.78;99379.84;5092021;28;20306;-57
2022/06/01 01:47:55;;;;;;;7.65;4.03;;;;;;;19.83;95.03;99374.69;5091990;28;20203;-58
2022/06/01 01:50:24;;;;;;;6.25;4.68;;;;;;;19.70;95.81;99371.22;5092084;28;20209;-57
2022/06/01 01:52:51;;;;;;;4.47;4.20;;;;;;;19.62;96.91;99372.69;5092076;28;20290;-63
2022/06/01 01:55:25;;;;;;;5.20;4.80;;;;;;;19.58;97.42;99379.94;5092736;28;20223;-62
2022/06/01 01:58:00;;;;;;;5.35;4.95;;;;;;;19.42;98.74;99377.44;5091813;28;20238;-57
2022/06/01 02:00:31;;;;;;;5.60;5.13;;;;;;;19.33;99.58;99362.28;5092183;28;20235;-61
2022/06/01 02:03:12;;;;;;;5.57;5.03;;;;;;;19.34;100.00;99377.13;5090975;28;20199;-57
2022/06/01 02:08:34;;;;;;;6.38;4.47;;;;;;;19.26;100.00;99373.34;5091815;28;20202;-58
2022/06/01 02:13:56;;;;;;;9.07;4.65;;;;;;;19.30;100.00;99373.00;5091688;28;20206;-58
2022/06/01 02:16:28;;;;;;;5.88;4.82;;;;;;;19.22;100.00;99375.31;5091445;28;20291;-63
2022/06/01 02:18:58;;;;;;;4.78;4.45;;;;;;;19.21;100.00;99371.00;5091557;28;20199;-62
2022/06/01 02:21:28;;;;;;;10.77;4.88;;;;;;;19.23;100.00;99374.38;5091499;28;20594;-62
2022/06/01 02:23:56;;;;;;;6.60;4.43;;;;;;;19.20;100.00;99382.47;5091256;28;20199;-63
2022/06/01 02:26:25;;;;;;;5.45;4.32;;;;;;;19.19;100.00;99371.09;5091393;28;20596;-61
2022/06/01 02:28:59;;;;;;;7.90;4.70;;;;;;;19.19;100.00;99380.78;5091499;28;20620;-61
2022/06/01 02:31:28;;;;;;;5.68;4.78;;;;;;;19.23;100.00;99383.09;5091920;28;20667;-61
2022/06/01 02:33:56;;;;;;;4.82;4.38;;;;;;;19.28;100.00;99387.25;5091050;28;20194;-56
2022/06/01 02:36:26;;;;;;;4.38;4.10;;;;;;;19.29;99.71;99392.41;5091685;28;20191;-60
2022/06/01 02:38:56;;;;;;;4.90;4.50;;;;;;;19.32;99.51;99389.53;5090903;28;20199;-56
2022/06/01 02:44:09;;;;;;;5.32;4.80;;;;;;;19.27;99.05;99394.28;5091036;28;20276;-56
2022/06/01 02:46:36;;;;;;;6.88;4.47;;;;;;;19.25;99.39;99390.06;5091250;28;20227;-59
2022/06/01 02:49:04;;;;;;;5.93;4.85;;;;;;;19.25;99.21;99390.06;5091189;28;20628;-56
2022/06/01 02:51:31;;;;;;;6.00;4.65;;;;;;;19.18;99.55;99394.91;5091367;28;20219;-57
2022/06/01 02:53:58;;;;;;;4.32;4.03;;;;;;;19.14;100.00;99393.41;5090945;28;20191;-60
2022/06/01 02:56:25;;;;;;;6.22;5.00;;;;;;;19.01;100.00;99392.50;5090394;28;20217;-60
2022/06/01 02:58:52;;;;;;;8.60;5.10;;;;;;;18.96;100.00;99397.25;5090750;28;20714;-62
2022/06/01 03:01:21;;;;;;;5.72;5.20;;;;;;;18.91;100.00;99394.91;5090767;28;20195;-60
2022/06/01 03:03:49;;;;;;;7.47;5.03;;;;;;;18.73;100.00;99368.03;5091150;28;20203;-61
2022/06/01 03:06:16;;;;;;;8.20;5.30;;;;;;;18.84;100.00;99399.72;5091337;28;20201;-62
2022/06/01 03:08:45;;;;;;;4.63;4.32;;;;;;;18.82;100.00;99391.09;5091230;28;20660;-61
2022/06/01 03:11:12;;;;;;;5.20;4.55;;;;;;;18.94;98.17;99378.09;5090458;28;20659;-58
2022/06/01 03:13:39;;;;;;;7.97;4.72;;;;;;;19.04;99.15;99406.31;5088673;28;20195;-58
2022/06/01 03:16:07;;;;;;;9.38;4.95;;;;;;;19.05;98.49;99409.81;5090927;28;20605;-61
2022/06/01 03:18:35;;;;;;;7.28;5.05;;;;;;;19.14;98.50;99401.31;5090959;28;20217;-61
2022/06/01 03:21:03;;;;;;;6.00;4.55;;;;;;;19.18;98.45;99395.75;5090968;28;20593;-61
2022/06/01 03:23:30;;;;;;;5.38;4.93;;;;;;;19.34;97.45;99400.81;5091093;28;20231;-61
2022/06/01 03:25:57;;;;;;;5.47;4.55;;;;;;;19.44;96.89;99407.16;5091024;28;20191;-61
2022/06/01 03:28:24;;;;;;;6.15;4.90;;;;;;;19.56;96.05;99401.09;5090321;28;20221;-58
2022/06/01 03:30:51;;;;;;;6.97;4.65;;;;;;;19.69;95.20;99405.53;5090094;28;20749;-57
2022/06/01 03:33:18;;;;;;;10.02;4.78;;;;;;;19.85;94.18;99401.78;5090273;28;20218;-57
2022/06/01 03:35:47;;;;;;;5.13;4.53;;;;;;;19.90;93.51;99402.28;5090045;28;20218;-58
2022/06/01 03:38:14;;;;;;;5.30;4.80;;;;;;;20.01;92.46;99400.69;5088533;28;20223;-58
2022/06/01 03:40:42;;;;;;;5.00;4.55;;;;;;;20.25;91.56;99412.16;5088629;28;20191;-57
2022/06/01 03:43:12;;;;;;;5.97;5.45;;;;;;;20.46;89.73;99412.47;5087496;28;20203;-61
2022/06/01 03:45:58;;;;;;;11.38;5.60;;;;;;;20.52;88.86;99418.16;5089742;28;20227;-62
2022/06/01 03:48:29;;;;;;;10.25;5.82;;;;;;;20.77;88.02;99413.78;5088174;28;20210;-60
2022/06/01 03:50:58;;;;;;;10.48;5.35;;;;;;;21.85;81.94;99413.59;5085466;28;20617;-59
2022/06/01 03:53:25;;;;;;;5.05;4.65;;;;;;;23.39;72.12;99407.41;5089093;28;20256;-59
2022/06/01 03:55:53;;;;;;;5.07;4.57;;;;;;;25.53;61.87;99416.88;5091583;28;20663;-58
2022/06/01 03:58:23;;;;;;;6.10;4.20;;;;;;;27.19;54.04;99412.47;5091468;28;20585;-57
2022/06/01 04:00:51;;;;;;;4.45;4.25;;;;;;;28.47;49.78;99431.41;5089807;28;20593;-59
2022/06/01 04:03:18;;;;;;;6.15;4.40;;;;;;;28.85;47.08;99416.72;5089436;28;20735;-58
2022/06/01 04:05:45;;;;;;;5.90;3.90;;;;;;;29.67;45.19;99415.00;5090181;28;20206;-59
2022/06/01 04:08:14;;;;;;;4.53;4.13;;;;;;;31.14;42.20;99426.91;5089879;28;20191;-58
2022/06/01 04:10:43;;;;;;;6.43;4.45;;;;;;;32.00;39.24;99439.97;5092035;28;20217;-63
2022/06/01 04:13:10;;;;;;;4.43;4.13;;;;;;;32.23;38.38;99440.75;5093694;28;20730;-62
2022/06/01 04:15:37;;;;;;;6.45;4.57;;;;;;;32.96;37.28;99439.84;5093063;28;20310;-63
2022/06/01 04:18:05;;;;;;;7.22;4.22;;;;;;;32.88;36.87;99439.13;5091872;28;21000;-55
2022/06/01 04:20:32;;;;;;;5.32;4.82;;;;;;;33.02;36.99;99436.41;5091298;28;20286;-56
2022/06/01 04:23:00;;;;;;;7.25;5.05;;;;;;;33.70;35.11;99443.09;5090135;28;20195;-55
2022/06/01 04:25:30;;;;;;;4.70;3.67;;;;;;;33.01;36.05;99441.97;5091392;28;20187;-61
2022/06/01 04:27:57;;;;;;;5.45;5.05;;;;;;;33.91;34.83;99438.72;5088008;28;20203;-55
2022/06/01 04:30:24;;;;;;;6.60;4.25;;;;;;;34.30;34.40;99438.19;5090077;28;20701;-64
2022/06/01 04:32:53;;;;;;;6.50;4.85;;;;;;;34.98;33.33;99439.16;5092410;28;20202;-63
2022/06/01 04:35:22;;;;;;;8.10;3.72;;;;;;;35.87;31.90;99437.00;5093131;28;20211;-63
2022/06/01 04:37:49;;;;;;;6.68;4.40;;;;;;;36.83;30.72;99446.16;5092562;28;20191;-64
2022/06/01 04:40:17;;;;;;;5.32;3.50;;;;;;;36.77;29.94;99444.31;5091953;28;20199;-63
2022/06/01 04:42:45;;;;;;;6.50;4.75;;;;;;;35.71;31.42;99440.94;5076898;28;20199;-63
2022/06/01 04:45:15;;;;;;;6.13;4.40;;;;;;;35.54;31.49;99445.09;5072023;28;20326;-64
2022/06/01 04:47:43;;;;;;;4.88;4.45;;;;;;;36.25;30.66;99445.28;5091694;28;20219;-64
2022/06/01 04:50:11;;;;;;;5.75;4.95;;;;;;;37.00;29.26;99451.91;5091720;28;20211;-63
2022/06/01 04:52:38;;;;;;;4.20;3.80;;;;;;;37.32;28.78;99458.19;5091196;28;20433;-61
2022/06/01 04:55:08;;;;;;;9.25;3.70;;;;;;;38.13;27.71;99456.34;5091213;28;20722;-64
2022/06/01 04:57:36;;;;;;;5.07;3.92;;;;;;;37.44;28.54;99449.16;5089526;28;20839;-64
2022/06/01 05:00:06;;;;;;;8.55;3.95;;;;;;;37.71;28.88;99467.91;5090829;28;20284;-64
2022/06/01 05:02:33;;;;;;;5.75;3.25;;;;;;;38.07;27.84;99430.09;5089655;28;20218;-63
2022/06/01 05:05:00;;;;;;;7.88;4.13;;;;;;;39.11;26.48;99468.97;5091013;28;20218;-63
2022/06/01 05:07:27;;;;;;;6.32;3.42;;;;;;;38.91;26.92;99469.22;5091084;28;20219;-64
2022/06/01 05:09:54;;;;;;;6.00;4.05;;;;;;;39.33;26.76;99461.97;5091435;28;20227;-64
2022/06/01 05:12:21;;;;;;;9.20;3.85;;;;;;;39.04;26.86;99471.81;5088230;28;20218;-63
2022/06/01 05:14:48;;;;;;;9.52;3.92;;;;;;;39.52;26.36;99474.44;5071990;28;20223;-63
2022/06/01 05:17:16;;;;;;;5.78;4.80;;;;;;;38.81;27.06;99464.34;5091785;28;20201;-59
2022/06/01 05:19:44;;;;;;;7.45;3.95;;;;;;;38.39;27.79;99473.34;5084652;28;20700;-60
2022/06/01 05:22:11;;;;;;;5.60;4.20;;;;;;;39.16;26.78;99480.00;5092799;28;20191;-61
2022/06/01 05:24:38;;;;;;;5.95;3.97;;;;;;;39.47;26.74;99476.22;5092679;28;20211;-62
2022/06/01 05:27:06;;;;;;;3.88;3.38;;;;;;;38.87;27.09;99470.72;5092929;28;20281;-63
2022/06/01 05:29:33;;;;;;;5.13;3.95;;;;;;;38.75;27.39;99473.38;5092680;28;20207;-63
2022/06/01 05:32:00;;;;;;;5.10;3.13;;;;;;;38.78;27.29;99474.81;5092825;28;20202;-64
2022/06/01 05:34:28;;;;;;;5.95;3.35;;;;;;;38.93;27.52;99477.97;5092588;28;20194;-63
2022/06/01 05:36:55;;;;;;;5.97;3.22;;;;;;;39.28;27.31;99480.84;5092419;28;20228;-63
2022/06/01 05:39:22;;;;;;;3.25;2.85;;;;;;;39.09;26.87;99469.22;5092842;28;20578;-63
2022/06/01 05:41:49;;;;;;;4.32;3.08;;;;;;;38.86;27.05;99471.78;5092514;28;20687;-63
2022/06/01 05:44:16;;;;;;;3.35;2.95;;;;;;;38.17;28.10;99477.53;5092156;28;20213;-61
2022/06/01 05:46:43;;;;;;;5.32;3.13;;;;;;;38.35;28.06;99470.28;5092036;28;20317;-61
2022/06/01 05:49:10;;;;;;;10.13;3.25;;;;;;;39.29;26.55;99455.34;5092461;28;20194;-63
2022/06/01 05:51:38;;;;;;;3.88;2.85;;;;;;;37.83;27.85;99462.63;5092074;28;20191;-63
2022/06/01 05:54:05;;;;;;;3.40;2.78;;;;;;;36.65;28.72;99465.75;5091358;28;20203;-63
2022/06/01 05:56:32;;;;;;;7.95;3.85;;;;;;;36.98;28.70;99468.34;5091955;28;20225;-61
2022/06/01 05:58:59;;;;;;;9.63;4.35;;;;;;;37.52;28.30;99471.59;5089561;28;20194;-64
2022/06/01 06:01:26;;;;;;;6.97;4.13;;;;;;;37.95;28.24;99477.94;5080010;28;20232;-61
2022/06/01 06:03:53;;;;;;;4.18;3.58;;;;;;;38.10;28.29;99475.75;5091760;28;20206;-62
2022/06/01 06:06:22;;;;;;;4.22;3.53;;;;;;;38.46;27.99;99474.13;5091945;28;20710;-64
2022/06/01 06:08:53;;;;;;;4.95;3.97;;;;;;;38.06;28.13;99476.38;5091820;28;20191;-63
2022/06/01 06:11:21;;;;;;;6.70;3.97;;;;;;;37.65;28.48;99475.06;5092019;28;20281;-65
2022/06/01 06:13:48;;;;;;;4.50;3.10;;;;;;;37.38;28.84;99463.56;5091933;28;20202;-64
2022/06/01 06:16:16;;;;;;;5.22;3.80;;;;;;;36.97;29.96;99482.09;5091607;28;20222;-63
2022/06/01 06:18:43;;;;;;;5.00;3.75;;;;;;;36.65;30.38;99483.88;5091469;28;20195;-62
2022/06/01 06:21:11;;;;;;;5.78;4.00;;;;;;;36.00;31.30;99480.22;5091649;28;20205;-62
2022/06/01 06:23:38;;;;;;;8.40;4.10;;;;;;;35.61;32.21;99475.63;5091650;28;20274;-62
2022/06/01 06:26:06;;;;;;;6.80;3.88;;;;;;;35.60;31.56;99473.94;5091350;28;20603;-65
2022/06/01 06:28:34;;;;;;;6.45;5.82;;;;;;;35.50;31.49;99465.44;5091817;28;20647;-64
2022/06/01 06:31:01;;;;;;;5.78;5.18;;;;;;;35.47;31.83;99465.84;5091206;28;20286;-63
2022/06/01 06:33:28;;;;;;;6.45;5.65;;;;;;;35.71;31.62;99470.63;5091775;28;20582;-62
2022/06/01 06:36:00;;;;;;;6.72;6.03;;;;;;;35.94;31.12;99468.38;5091233;28;20603;-63
2022/06/01 06:38:28;;;;;;;5.30;4.82;;;;;;;35.19;32.25;99457.88;5090969;28;20302;-63
2022/06/01 06:40:56;;;;;;;6.75;3.95;;;;;;;35.08;32.67;99459.31;5090148;28;20218;-63
2022/06/01 06:43:26;;;;;;;8.38;4.03;;;;;;;34.82;32.81;99459.22;5091323;28;20203;-63
2022/06/01 06:45:57;;;;;;;12.70;4.80;;;;;;;34.39;33.51;99454.00;5091241;28;20723;-63
2022/06/01 06:48:24;;;;;;;5.47;4.53;;;;;;;34.90;32.90;99457.16;5091215;28;20191;-63
2022/06/01 06:50:51;;;;;;;8.98;5.43;;;;;;;34.49;33.62;99449.06;5091006;28;20217;-64
2022/06/01 06:53:18;;;;;;;7.18;4.53;;;;;;;33.81;34.48;99452.53;5091321;28;20736;-63
2022/06/01 06:55:45;;;;;;;4.40;3.75;;;;;;;33.69;34.57;99446.81;5090993;28;20311;-64
2022/06/01 06:58:13;;;;;;;5.32;4.82;;;;;;;33.42;35.67;99452.97;5090797;28;20192;-64
2022/06/01 07:00:41;;;;;;;4.75;4.35;;;;;;;33.52;35.25;99457.00;5090679;28;20198;-63
2022/06/01 07:03:08;;;;;;;5.45;4.10;;;;;;;33.07;36.69;99442.03;5090768;28;20203;-63
2022/06/01 07:08:20;;;;;;;8.10;5.50;;;;;;;32.90;37.05;99419.09;5088245;28;20194;-62
2022/06/01 07:10:47;;;;;;;8.32;4.22;;;;;;;32.62;36.04;99432.38;5090119;28;20490;-63
2022/06/01 07:13:15;;;;;;;5.60;4.45;;;;;;;33.03;36.27;99439.94;5090189;28;20199;-63
2022/06/01 07:15:43;;;;;;;5.10;4.28;;;;;;;33.71;35.30;99447.47;5090133;28;20199;-64
2022/06/01 07:18:10;;;;;;;8.55;4.45;;;;;;;33.70;35.15;99448.47;5090646;28;20233;-63
2022/06/01 07:20:37;;;;;;;12.40;5.32;;;;;;;33.89;35.12;99437.06;5090259;28;20616;-64
2022/06/01 07:23:04;;;;;;;4.30;3.95;;;;;;;33.80;33.69;99434.72;5090462;28;20199;-63
2022/06/01 07:25:31;;;;;;;3.92;3.63;;;;;;;33.53;34.52;99436.31;5090275;28;20195;-64
2022/06/01 07:27:58;;;;;;;6.05;4.35;;;;;;;33.44;34.99;99435.63;5089684;28;20672;-63
2022/06/01 07:30:26;;;;;;;5.47;4.45;;;;;;;33.89;34.36;99433.53;5089806;28;20257;-63
2022/06/01 07:32:55;;;;;;;6.15;4.80;;;;;;;34.35;33.79;99435.72;5090270;28;20286;-63
2022/06/01 07:35:21;;;;;;;7.82;4.57;;;;;;;34.30;34.14;99436.34;5090480;28;20198;-62
2022/06/01 07:43:20;;;;;;;5.57;4.10;;;;;;;33.65;34.59;99407.84;5089947;28;20599;-62
2022/06/01 07:45:49;;;;;;;4.72;4.32;;;;;;;34.31;33.81;99435.31;5090196;28;20237;-62
2022/06/01 07:48:18;;;;;;;6.18;3.92;;;;;;;35.09;32.62;99428.59;5090580;28;20201;-63
2022/06/01 07:50:46;;;;;;;7.95;4.43;;;;;;;35.76;31.43;99435.78;5090043;28;20196;-64
2022/06/01 07:53:13;;;;;;;8.30;4.15;;;;;;;36.41;30.50;99431.31;5090015;28;20199;-63
2022/06/01 07:55:41;;;;;;;8.00;4.25;;;;;;;36.90;29.89;99432.59;5089964;28;20202;-64
2022/06/01 07:58:09;;;;;;;8.23;5.72;;;;;;;37.71;28.60;99430.00;5089751;28;20187;-63
2022/06/01 08:00:36;;;;;;;6.80;5.00;;;;;;;38.13;27.33;99433.81;5089773;28;20190;-64
2022/06/01 08:03:03;;;;;;;6.30;4.10;;;;;;;38.22;27.03;99428.91;5088921;28;20191;-64
2022/06/01 08:05:33;;;;;;;4.60;4.30;;;;;;;38.68;26.80;99431.13;5088787;28;20191;-63
2022/06/01 08:08:00;;;;;;;7.57;5.05;;;;;;;38.99;26.92;99433.66;5085953;28;20663;-63
2022/06/01 08:10:27;;;;;;;8.45;4.07;;;;;;;38.90;26.48;99431.47;5088745;28;20667;-64
2022/06/01 08:13:09;;;;;;;4.32;3.72;;;;;;;38.98;26.44;99429.28;5088312;28;20191;-63
2022/06/01 08:15:40;;;;;;;6.07;3.88;;;;;;;38.47;26.49;99430.50;5089660;28;20202;-64
2022/06/01 08:18:07;;;;;;;4.20;3.80;;;;;;;38.64;26.46;99424.47;5088430;28;20685;-63
2022/06/01 08:20:36;;;;;;;4.55;4.15;;;;;;;38.80;26.61;99434.72;5089343;28;20234;-63
2022/06/01 08:23:04;;;;;;;4.35;3.70;;;;;;;39.28;26.24;99433.88;5089769;28;20201;-63
2022/06/01 08:25:31;;;;;;;7.82;4.35;;;;;;;39.15;26.32;99432.19;5090027;28;20194;-63
2022/06/01 08:27:59;;;;;;;4.47;4.18;;;;;;;39.28;26.61;99434.66;5089718;28;20190;-63
2022/06/01 08:30:29;;;;;;;5.07;3.67;;;;;;;38.71;27.17;99431.50;5090003;28;20220;-64
2022/06/01 08:32:56;;;;;;;6.75;3.67;;;;;;;38.36;27.36;99428.56;5089955;28;20202;-63
2022/06/01 08:35:26;;;;;;;10.43;4.65;;;;;;;38.12;27.63;99427.56;5089080;28;20606;-62
2022/06/01 08:37:55;;;;;;;10.68;4.47;;;;;;;37.61;28.46;99426.94;5089445;28;20299;-62
2022/06/01 08:40:25;;;;;;;7.43;4.00;;;;;;;37.13;28.70;99427.47;5091287;28;20666;-65
2022/06/01 08:42:57;;;;;;;6.95;4.20;;;;;;;36.28;29.60;99417.84;5093540;28;20201;-62
2022/06/01 08:45:26;;;;;;;4.05;3.70;;;;;;;35.50;31.24;99420.38;5093153;28;20637;-60
2022/06/01 08:47:53;;;;;;;6.35;4.03;;;;;;;35.45;31.61;99422.84;5093378;28;20198;-61
2022/06/01 08:50:25;;;;;;;7.88;4.28;;;;;;;35.14;32.67;99420.69;5093627;28;20202;-61
2022/06/01 08:52:53;;;;;;;9.02;4.20;;;;;;;35.06;32.54;99422.75;5093351;28;20203;-61
2022/06/01 08:55:23;;;;;;;7.05;4.43;;;;;;;34.66;33.28;99414.50;5093278;28;20195;-62
2022/06/01 08:57:57;;;;;;;4.38;4.00;;;;;;;34.90;32.98;99418.56;5093251;28;20223;-64
2022/06/01 09:00:29;;;;;;;6.32;3.80;;;;;;;35.10;32.31;99407.84;5093283;28;20217;-64
2022/06/01 09:03:07;;;;;;;7.07;5.13;;;;;;;35.51;32.01;99416.63;5093053;28;20612;-64
2022/06/01 09:05:44;;;;;;;4.38;4.10;;;;;;;35.40;31.69;99400.22;5091798;28;20199;-64
2022/06/01 09:08:23;;;;;;;6.85;4.20;;;;;;;35.10;31.70;99391.66;5092860;28;20191;-65
2022/06/01 09:11:03;;;;;;;8.95;3.80;;;;;;;35.49;31.67;99407.06;5092937;28;20199;-63
2022/06/01 09:13:38;;;;;;;4.35;4.00;;;;;;;35.53;31.04;99406.47;5092767;28;20195;-64
2022/06/01 09:16:11;;;;;;;5.13;4.63;;;;;;;35.09;31.15;99398.91;5092583;28;20198;-64
2022/06/01 09:18:42;;;;;;;4.60;4.20;;;;;;;34.95;31.02;99397.22;5092884;28;20593;-64
2022/06/01 09:24:05;;;;;;;7.05;4.18;;;;;;;35.15;30.82;99395.38;5092815;28;20190;-65
2022/06/01 09:26:34;;;;;;;9.13;4.18;;;;;;;35.07;30.20;99392.88;5092653;28;20187;-65
2022/06/01 09:29:02;;;;;;;7.07;3.20;;;;;;;34.20;30.00;99395.41;5092285;28;20195;-64
2022/06/01 09:31:36;;;;;;;3.40;3.13;;;;;;;33.98;31.50;99391.13;5092337;28;20282;-64
2022/06/01 09:34:23;;;;;;;5.93;2.80;;;;;;;34.07;29.42;99396.16;5092505;28;20597;-64
2022/06/01 09:36:55;;;;;;;4.30;3.08;;;;;;;34.38;30.48;99389.53;5092269;28;20219;-63
2022/06/01 09:39:22;;;;;;;5.22;2.80;;;;;;;34.37;29.72;99396.78;5092311;28;20191;-64
2022/06/01 09:41:51;;;;;;;4.00;2.90;;;;;;;34.68;29.65;99395.44;5092146;28;20207;-64
2022/06/01 09:44:33;;;;;;;5.85;3.30;;;;;;;34.92;30.80;99390.34;5092273;28;20199;-65
2022/06/01 09:47:03;;;;;;;6.65;4.18;;;;;;;34.97;30.10;99387.06;5089861;28;20226;-64
2022/06/01 09:49:33;;;;;;;5.65;3.60;;;;;;;34.98;30.34;99375.25;5088015;28;20629;-64
2022/06/01 09:52:03;;;;;;;6.90;3.70;;;;;;;34.92;30.72;99376.03;5088342;28;20284;-64
2022/06/01 09:54:31;;;;;;;8.05;4.47;;;;;;;35.13;30.80;99380.44;5090770;28;20659;-65
2022/06/01 09:57:17;;;;;;;5.40;3.83;;;;;;;34.59;30.28;99374.06;5089883;28;20222;-65
2022/06/01 10:08:11;;;;;;;3.88;3.40;;;;;;;33.94;31.42;99361.06;5090366;28;20590;-62
2022/06/01 10:10:39;;;;;;;3.28;2.97;;;;;;;33.86;31.62;99358.56;5088801;28;20202;-64
2022/06/01 10:13:07;;;;;;;4.05;3.25;;;;;;;33.71;30.43;99364.00;5090391;28;20203;-63
2022/06/01 10:15:40;;;;;;;4.68;3.00;;;;;;;33.76;31.46;99353.50;5090721;28;20195;-64
2022/06/01 10:18:12;;;;;;;3.90;3.60;;;;;;;33.73;31.64;99359.25;5090219;28;20218;-61
2022/06/01 10:20:45;;;;;;;8.70;3.35;;;;;;;33.51;31.84;99350.41;5090496;28;20281;-61
2022/06/01 10:23:18;;;;;;;5.72;4.00;;;;;;;33.33;32.15;99343.81;5087344;28;20585;-62
2022/06/01 10:25:52;;;;;;;3.80;3.10;;;;;;;33.09;32.18;99342.34;5089467;28;20194;-63
2022/06/01 10:28:26;;;;;;;3.08;2.80;;;;;;;32.62;32.21;99351.75;5088418;28;20214;-64
2022/06/01 10:30:58;;;;;;;4.65;3.58;;;;;;;32.47;33.11;99340.22;5089882;28;20700;-61
2022/06/01 10:33:31;;;;;;;4.25;3.08;;;;;;;32.44;33.20;99344.09;5089848;28;20206;-63
2022/06/01 10:36:02;;;;;;;3.53;3.22;;;;;;;32.31;33.87;99343.94;5087939;28;20199;-63
2022/06/01 10:38:38;;;;;;;3.55;3.25;;;;;;;32.09;33.77;99329.59;5089850;28;20566;-64
2022/06/01 10:41:09;;;;;;;3.20;2.80;;;;;;;32.49;32.85;99342.72;5088674;28;20659;-61
2022/06/01 10:43:46;;;;;;;4.95;3.30;;;;;;;32.05;33.02;99330.16;5087373;28;20191;-62
2022/06/01 10:46:33;;;;;;;6.18;3.33;;;;;;;31.90;33.72;99345.44;5088841;28;20258;-64
2022/06/01 10:49:11;;;;;;;5.28;3.22;;;;;;;31.69;33.98;99344.31;5087808;28;20205;-62
2022/06/01 10:51:38;;;;;;;4.68;3.03;;;;;;;31.56;33.97;99341.41;5089278;28;20205;-62
2022/06/01 10:54:11;;;;;;;4.90;3.80;;;;;;;31.47;34.84;99342.50;5088596;28;20595;-62
2022/06/01 10:56:39;;;;;;;4.55;3.63;;;;;;;31.57;34.96;99340.38;5086546;28;20219;-62
2022/06/01 10:59:16;;;;;;;6.10;3.30;;;;;;;31.77;35.21;99339.88;5089109;28;20641;-62
2022/06/01 11:01:54;;;;;;;8.10;3.08;;;;;;;32.01;34.43;99334.22;5090026;28;20287;-62
2022/06/01 11:04:45;;;;;;;5.82;3.60;;;;;;;32.25;33.92;99339.34;5088271;28;20201;-63
2022/06/01 11:07:39;;;;;;;7.25;3.00;;;;;;;32.25;32.58;99322.38;5087390;28;20909;-62
2022/06/01 11:10:13;;;;;;;3.65;2.63;;;;;;;32.33;32.60;99331.16;5088435;28;20567;-62
2022/06/01 11:12:55;;;;;;;4.13;2.50;;;;;;;32.14;32.72;99318.28;5087504;28;20194;-61
2022/06/01 11:15:34;;;;;;;3.25;2.72;;;;;;;32.19;32.69;99328.50;5088318;28;20198;-62
2022/06/01 11:18:03;;;;;;;7.05;2.95;;;;;;;32.21;32.59;99324.59;5087111;28;20699;-61
2022/06/01 11:20:49;;;;;;;5.55;2.97;;;;;;;32.01;32.45;99310.06;5088234;28;20687;-63
2022/06/01 11:23:29;;;;;;;3.75;2.65;;;;;;;32.11;32.55;99315.97;5086215;28;20581;-64
2022/06/01 11:26:03;;;;;;;3.80;2.75;;;;;;;32.28;31.91;99317.44;5086435;28;20226;-63
2022/06/01 11:28:49;;;;;;;3.30;2.40;;;;;;;32.26;31.78;99302.56;5088752;28;20184;-62
2022/06/01 11:31:21;;;;;;;2.28;2.10;;;;;;;32.15;31.79;99303.84;5087113;28;20282;-62
2022/06/01 11:33:55;;;;;;;3.30;3.00;;;;;;;32.09;31.56;99301.91;5089005;28;20210;-62
2022/06/01 11:36:39;;;;;;;3.05;2.63;;;;;;;32.16;30.93;99308.22;5088956;28;20196;-65
2022/06/01 11:39:22;;;;;;;2.95;2.75;;;;;;;32.21;31.15;99304.97;5088902;28;20218;-65
2022/06/01 11:41:58;;;;;;;3.45;3.15;;;;;;;32.05;31.67;99301.47;5086473;28;20586;-63
2022/06/01 11:44:33;;;;;;;6.07;2.80;;;;;;;32.15;31.65;99295.78;5086929;28;20191;-62
2022/06/01 11:47:05;;;;;;;3.13;2.88;;;;;;;32.21;30.52;99300.44;5084128;28;20775;-62
2022/06/01 11:49:35;;;;;;;4.35;2.85;;;;;;;32.20;30.92;99281.81;5086227;28;20195;-63
2022/06/01 11:52:26;;;;;;;7.10;3.03;;;;;;;32.19;30.97;99299.78;5086864;28;20621;-64
2022/06/01 11:54:57;;;;;;;13.45;3.05;;;;;;;32.20;31.40;99293.41;5088353;28;20211;-62
2022/06/01 11:57:38;;;;;;;3.17;2.97;;;;;;;32.13;32.10;99297.00;5088998;28;20221;-62
2022/06/01 12:00:14;;;;;;;2.83;2.60;;;;;;;32.05;31.16;99300.63;5089922;28;20774;-62
2022/06/01 12:02:44;;;;;;;3.95;2.88;;;;;;;32.18;31.95;99297.28;5090272;28;20218;-62
2022/06/01 12:05:20;;;;;;;4.97;3.10;;;;;;;32.25;31.55;99292.84;5090141;28;20714;-61
2022/06/01 12:07:51;;;;;;;4.15;2.88;;;;;;;32.35;31.32;99291.53;5089956;28;20187;-62
2022/06/01 12:10:29;;;;;;;3.03;2.70;;;;;;;32.40;31.50;99293.63;5090250;28;20637;-62
2022/06/01 12:13:04;;;;;;;3.85;3.38;;;;;;;32.46;31.04;99299.09;5090379;28;20571;-62